sensor_id;sensor_type;location;lat;lon;timestamp;pressure;altitude;pressure_sealevel;temperature;humidity
26719;BME280;14326;50.794;6.060;2023-03-15T00:01:19;99322.06;;;2.82;100.00
26719;BME280;14326;50.794;6.060;2023-03-15T00:03:52;99316.81;;;2.82;100.00
26719;BME280;14326;50.794;6.060;2023-03-15T00:06:20;99317.53;;;2.78;100.00
26719;BME280;14326;50.794;6.060;2023-03-15T00:08:46;99325.41;;;2.78;100.00
26719;BME280;14326;50.794;6.060;2023-03-15T00:11:14;99321.88;;;2.77;100.00
26719;BME280;14326;50.794;6.060;2023-03-15T00:13:41;99313.25;;;2.80;100.00
26719;BME280;14326;50.794;6.060;2023-03-15T00:16:08;99315.13;;;2.84;100.00
26719;BME280;14326;50.794;6.060;2023-03-15T00:18:35;99318.78;;;2.89;100.00
26719;BME280;14326;50.794;6.060;2023-03-15T00:21:03;99310.19;;;2.93;100.00
26719;BME280;14326;50.794;6.060;2023-03-15T00:23:30;99314.66;;;2.96;100.00
26719;BME280;14326;50.794;6.060;2023-03-15T00:25:59;99319.06;;;2.97;100.00
26719;BME280;14326;50.794;6.060;2023-03-15T00:28:26;99313.75;;;2.95;100.00
26719;BME280;14326;50.794;6.060;2023-03-15T00:31:02;99314.81;;;3.00;100.00
26719;BME280;14326;50.794;6.060;2023-03-15T00:33:29;99318.44;;;3.04;100.00
26719;BME280;14326;50.794;6.060;2023-03-15T00:36:00;99310.56;;;3.04;100.00
26719;BME280;14326;50.794;6.060;2023-03-15T00:38:29;99317.59;;;3.05;100.00
26719;BME280;14326;50.794;6.060;2023-03-15T00:40:56;99310.84;;;3.13;100.00
26719;BME280;14326;50.794;6.060;2023-03-15T00:43:22;99318.84;;;3.16;100.00
26719;BME280;14326;50.794;6.060;2023-03-15T00:45:52;99319.69;;;3.15;100.00
26719;BME280;14326;50.794;6.060;2023-03-15T00:48:19;99325.97;;;3.20;100.00
26719;BME280;14326;50.794;6.060;2023-03-15T00:50:46;99319.06;;;3.22;100.00
26719;BME280;14326;50.794;6.060;2023-03-15T00:53:12;99318.09;;;3.20;100.00
26719;BME280;14326;50.794;6.060;2023-03-15T00:55:40;99326.03;;;3.21;100.00
26719;BME280;14326;50.794;6.060;2023-03-15T00:58:07;99322.56;;;3.22;100.00
26719;BME280;14326;50.794;6.060;2023-03-15T01:00:34;99326.09;;;3.23;100.00
26719;BME280;14326;50.794;6.060;2023-03-15T01:03:02;99331.44;;;3.26;100.00
26719;BME280;14326;50.794;6.060;2023-03-15T01:05:29;99335.94;;;3.30;100.00
26719;BME280;14326;50.794;6.060;2023-03-15T01:07:56;99321.88;;;3.28;100.00
26719;BME280;14326;50.794;6.060;2023-03-15T01:10:22;99329.84;;;3.31;100.00
26719;BME280;14326;50.794;6.060;2023-03-15T01:12:50;99338.69;;;3.33;100.00
26719;BME280;14326;50.794;6.060;2023-03-15T01:15:17;99343.88;;;3.32;100.00
26719;BME280;14326;50.794;6.060;2023-03-15T01:17:43;99343.06;;;3.33;100.00
26719;BME280;14326;50.794;6.060;2023-03-15T01:20:12;99336.91;;;3.32;100.00
26719;BME280;14326;50.794;6.060;2023-03-15T01:22:39;99330.06;;;3.37;100.00
26719;BME280;14326;50.794;6.060;2023-03-15T01:25:06;99325.50;;;3.32;100.00
26719;BME280;14326;50.794;6.060;2023-03-15T01:27:33;99325.41;;;3.28;100.00
26719;BME280;14326;50.794;6.060;2023-03-15T01:30:02;99337.72;;;3.29;100.00
26719;BME280;14326;50.794;6.060;2023-03-15T01:32:28;99344.66;;;3.27;100.00
26719;BME280;14326;50.794;6.060;2023-03-15T01:35:03;99363.81;;;3.25;100.00
26719;BME280;14326;50.794;6.060;2023-03-15T01:37:32;99377.84;;;3.25;100.00
26719;BME280;14326;50.794;6.060;2023-03-15T01:39:58;99381.97;;;3.17;100.00
26719;BME280;14326;50.794;6.060;2023-03-15T01:42:25;99384.06;;;3.02;100.00
26719;BME280;14326;50.794;6.060;2023-03-15T01:48:06;99390.56;;;2.88;100.00
26719;BME280;14326;50.794;6.060;2023-03-15T01:50:48;99392.19;;;2.61;100.00
26719;BME280;14326;50.794;6.060;2023-03-15T01:56:16;99387.38;;;2.49;100.00
26719;BME280;14326;50.794;6.060;2023-03-15T01:58:44;99381.22;;;2.48;100.00
26719;BME280;14326;50.794;6.060;2023-03-15T02:01:13;99373.25;;;2.45;100.00
26719;BME280;14326;50.794;6.060;2023-03-15T02:03:44;99369.22;;;2.31;100.00
26719;BME280;14326;50.794;6.060;2023-03-15T02:09:03;99371.56;;;2.24;100.00
26719;BME280;14326;50.794;6.060;2023-03-15T02:11:44;99372.41;;;2.23;100.00
26719;BME280;14326;50.794;6.060;2023-03-15T02:14:12;99384.69;;;2.24;100.00
26719;BME280;14326;50.794;6.060;2023-03-15T02:16:56;99382.00;;;2.22;100.00
26719;BME280;14326;50.794;6.060;2023-03-15T02:19:47;99385.53;;;2.23;100.00
26719;BME280;14326;50.794;6.060;2023-03-15T02:22:24;99384.84;;;2.28;100.00
26719;BME280;14326;50.794;6.060;2023-03-15T02:24:56;99381.41;;;2.29;100.00
26719;BME280;14326;50.794;6.060;2023-03-15T02:27:29;99383.16;;;2.30;100.00
26719;BME280;14326;50.794;6.060;2023-03-15T02:30:05;99387.72;;;2.34;100.00
26719;BME280;14326;50.794;6.060;2023-03-15T02:32:46;99384.03;;;2.29;100.00
26719;BME280;14326;50.794;6.060;2023-03-15T02:35:43;99386.41;;;2.23;100.00
26719;BME280;14326;50.794;6.060;2023-03-15T02:38:16;99382.69;;;2.18;100.00
26719;BME280;14326;50.794;6.060;2023-03-15T02:41:08;99377.22;;;2.12;100.00
26719;BME280;14326;50.794;6.060;2023-03-15T02:43:40;99379.00;;;2.13;100.00
26719;BME280;14326;50.794;6.060;2023-03-15T02:46:26;99380.03;;;2.17;100.00
26719;BME280;14326;50.794;6.060;2023-03-15T02:48:53;99380.47;;;2.05;100.00
26719;BME280;14326;50.794;6.060;2023-03-15T02:51:38;99373.66;;;2.10;100.00
26719;BME280;14326;50.794;6.060;2023-03-15T02:54:38;99375.47;;;2.11;100.00
26719;BME280;14326;50.794;6.060;2023-03-15T02:57:07;99369.41;;;2.14;100.00
26719;BME280;14326;50.794;6.060;2023-03-15T02:59:39;99380.88;;;2.16;100.00
26719;BME280;14326;50.794;6.060;2023-03-15T03:02:12;99380.69;;;2.11;100.00
26719;BME280;14326;50.794;6.060;2023-03-15T03:04:39;99382.47;;;2.12;100.00
26719;BME280;14326;50.794;6.060;2023-03-15T03:07:20;99386.72;;;2.09;100.00
26719;BME280;14326;50.794;6.060;2023-03-15T03:12:34;99395.41;;;2.08;100.00
26719;BME280;14326;50.794;6.060;2023-03-15T03:15:02;99395.41;;;2.08;100.00
26719;BME280;14326;50.794;6.060;2023-03-15T03:17:29;99391.84;;;2.05;100.00
26719;BME280;14326;50.794;6.060;2023-03-15T03:19:56;99387.50;;;2.06;100.00
26719;BME280;14326;50.794;6.060;2023-03-15T03:22:23;99400.81;;;2.12;100.00
26719;BME280;14326;50.794;6.060;2023-03-15T03:27:46;99401.56;;;2.08;100.00
26719;BME280;14326;50.794;6.060;2023-03-15T03:30:33;99404.00;;;2.03;100.00
26719;BME280;14326;50.794;6.060;2023-03-15T03:33:03;99414.59;;;2.06;100.00
26719;BME280;14326;50.794;6.060;2023-03-15T03:35:30;99422.47;;;2.06;100.00
26719;BME280;14326;50.794;6.060;2023-03-15T03:37:57;99418.84;;;2.03;100.00
26719;BME280;14326;50.794;6.060;2023-03-15T03:40:28;99420.03;;;2.11;100.00
26719;BME280;14326;50.794;6.060;2023-03-15T03:42:57;99423.56;;;2.12;100.00
26719;BME280;14326;50.794;6.060;2023-03-15T03:45:23;99427.91;;;2.11;100.00
26719;BME280;14326;50.794;6.060;2023-03-15T03:47:51;99433.16;;;2.11;100.00
26719;BME280;14326;50.794;6.060;2023-03-15T03:50:18;99438.44;;;2.13;100.00
26719;BME280;14326;50.794;6.060;2023-03-15T03:52:45;99441.06;;;2.13;100.00
26719;BME280;14326;50.794;6.060;2023-03-15T03:55:33;99450.72;;;2.14;100.00
26719;BME280;14326;50.794;6.060;2023-03-15T03:58:17;99455.91;;;2.12;100.00
26719;BME280;14326;50.794;6.060;2023-03-15T04:00:50;99457.59;;;2.10;100.00
26719;BME280;14326;50.794;6.060;2023-03-15T04:03:24;99463.78;;;2.12;100.00
26719;BME280;14326;50.794;6.060;2023-03-15T04:06:00;99466.41;;;2.12;100.00
26719;BME280;14326;50.794;6.060;2023-03-15T04:08:34;99461.16;;;2.12;100.00
26719;BME280;14326;50.794;6.060;2023-03-15T04:11:07;99467.44;;;2.16;100.00
26719;BME280;14326;50.794;6.060;2023-03-15T04:13:33;99477.03;;;2.15;100.00
26719;BME280;14326;50.794;6.060;2023-03-15T04:16:00;99473.44;;;2.13;100.00
26719;BME280;14326;50.794;6.060;2023-03-15T04:18:29;99481.31;;;2.13;100.00
26719;BME280;14326;50.794;6.060;2023-03-15T04:21:01;99478.66;;;2.12;100.00
26719;BME280;14326;50.794;6.060;2023-03-15T04:23:50;99477.88;;;2.14;100.00
26719;BME280;14326;50.794;6.060;2023-03-15T04:26:31;99474.16;;;2.09;100.00
26719;BME280;14326;50.794;6.060;2023-03-15T04:29:02;99488.94;;;2.07;100.00
26719;BME280;14326;50.794;6.060;2023-03-15T04:31:50;99494.19;;;2.07;100.00
26719;BME280;14326;50.794;6.060;2023-03-15T04:34:32;99496.81;;;2.07;100.00
26719;BME280;14326;50.794;6.060;2023-03-15T04:37:10;99498.53;;;2.06;100.00
26719;BME280;14326;50.794;6.060;2023-03-15T04:39:37;99503.84;;;2.08;100.00
26719;BME280;14326;50.794;6.060;2023-03-15T04:42:07;99515.31;;;2.10;100.00
26719;BME280;14326;50.794;6.060;2023-03-15T04:44:33;99506.63;;;2.11;100.00
26719;BME280;14326;50.794;6.060;2023-03-15T04:47:00;99506.63;;;2.11;100.00
26719;BME280;14326;50.794;6.060;2023-03-15T04:49:26;99505.06;;;2.16;100.00
26719;BME280;14326;50.794;6.060;2023-03-15T04:51:59;99506.72;;;2.14;100.00
26719;BME280;14326;50.794;6.060;2023-03-15T04:54:28;99510.97;;;2.11;100.00
26719;BME280;14326;50.794;6.060;2023-03-15T04:56:55;99511.13;;;2.15;100.00
26719;BME280;14326;50.794;6.060;2023-03-15T04:59:22;99509.47;;;2.17;100.00
26719;BME280;14326;50.794;6.060;2023-03-15T05:02:09;99512.88;;;2.15;100.00
26719;BME280;14326;50.794;6.060;2023-03-15T05:04:49;99509.41;;;2.16;100.00
26719;BME280;14326;50.794;6.060;2023-03-15T05:07:26;99513.75;;;2.15;100.00
26719;BME280;14326;50.794;6.060;2023-03-15T05:09:54;99528.69;;;2.16;100.00
26719;BME280;14326;50.794;6.060;2023-03-15T05:12:20;99516.56;;;2.20;100.00
26719;BME280;14326;50.794;6.060;2023-03-15T05:14:48;99526.16;;;2.19;100.00
26719;BME280;14326;50.794;6.060;2023-03-15T05:17:16;99528.19;;;2.26;100.00
26719;BME280;14326;50.794;6.060;2023-03-15T05:19:43;99534.25;;;2.24;100.00
26719;BME280;14326;50.794;6.060;2023-03-15T05:22:10;99535.81;;;2.20;100.00
26719;BME280;14326;50.794;6.060;2023-03-15T05:24:42;99545.34;;;2.18;100.00
26719;BME280;14326;50.794;6.060;2023-03-15T05:27:14;99549.66;;;2.16;100.00
26719;BME280;14326;50.794;6.060;2023-03-15T05:29:44;99562.88;;;2.19;100.00
26719;BME280;14326;50.794;6.060;2023-03-15T05:32:19;99566.22;;;2.15;100.00
26719;BME280;14326;50.794;6.060;2023-03-15T05:34:51;99569.50;;;2.10;100.00
26719;BME280;14326;50.794;6.060;2023-03-15T05:37:19;99567.63;;;2.07;100.00
26719;BME280;14326;50.794;6.060;2023-03-15T05:40:01;99570.31;;;2.09;100.00
26719;BME280;14326;50.794;6.060;2023-03-15T05:42:42;99572.06;;;2.08;100.00
26719;BME280;14326;50.794;6.060;2023-03-15T05:45:09;99572.06;;;2.08;100.00
26719;BME280;14326;50.794;6.060;2023-03-15T05:47:36;99568.66;;;2.11;100.00
26719;BME280;14326;50.794;6.060;2023-03-15T05:50:07;99570.50;;;2.13;100.00
26719;BME280;14326;50.794;6.060;2023-03-15T05:52:34;99573.97;;;2.12;100.00
26719;BME280;14326;50.794;6.060;2023-03-15T05:55:02;99576.53;;;2.11;100.00
26719;BME280;14326;50.794;6.060;2023-03-15T05:57:29;99576.47;;;2.09;100.00
26719;BME280;14326;50.794;6.060;2023-03-15T05:59:57;99580.09;;;2.13;100.00
26719;BME280;14326;50.794;6.060;2023-03-15T06:02:40;99588.88;;;2.13;100.00
26719;BME280;14326;50.794;6.060;2023-03-15T06:05:07;99579.28;;;2.14;100.00
26719;BME280;14326;50.794;6.060;2023-03-15T06:07:40;99598.59;;;2.16;100.00
26719;BME280;14326;50.794;6.060;2023-03-15T06:10:11;99596.88;;;2.16;100.00
26719;BME280;14326;50.794;6.060;2023-03-15T06:12:38;99605.75;;;2.20;100.00
26719;BME280;14326;50.794;6.060;2023-03-15T06:15:07;99610.13;;;2.19;100.00
26719;BME280;14326;50.794;6.060;2023-03-15T06:17:39;99605.94;;;2.24;100.00
26719;BME280;14326;50.794;6.060;2023-03-15T06:20:06;99607.81;;;2.27;100.00
26719;BME280;14326;50.794;6.060;2023-03-15T06:22:33;99607.72;;;2.24;100.00
26719;BME280;14326;50.794;6.060;2023-03-15T06:25:00;99603.47;;;2.27;100.00
26719;BME280;14326;50.794;6.060;2023-03-15T06:27:29;99614.22;;;2.33;100.00
26719;BME280;14326;50.794;6.060;2023-03-15T06:29:56;99615.22;;;2.37;100.00
26719;BME280;14326;50.794;6.060;2023-03-15T06:32:22;99618.81;;;2.39;100.00
26719;BME280;14326;50.794;6.060;2023-03-15T06:34:49;99622.59;;;2.45;100.00
26719;BME280;14326;50.794;6.060;2023-03-15T06:37:15;99627.03;;;2.46;100.00
26719;BME280;14326;50.794;6.060;2023-03-15T06:39:52;99627.84;;;2.45;100.00
26719;BME280;14326;50.794;6.060;2023-03-15T06:42:19;99633.94;;;2.44;100.00
26719;BME280;14326;50.794;6.060;2023-03-15T06:44:47;99634.75;;;2.43;100.00
26719;BME280;14326;50.794;6.060;2023-03-15T06:47:14;99637.56;;;2.48;100.00
26719;BME280;14326;50.794;6.060;2023-03-15T06:49:41;99642.88;;;2.50;100.00
26719;BME280;14326;50.794;6.060;2023-03-15T06:52:08;99649.09;;;2.52;100.00
26719;BME280;14326;50.794;6.060;2023-03-15T06:54:35;99663.13;;;2.52;100.00
26719;BME280;14326;50.794;6.060;2023-03-15T06:57:05;99657.97;;;2.55;100.00
26719;BME280;14326;50.794;6.060;2023-03-15T06:59:32;99670.28;;;2.56;100.00
26719;BME280;14326;50.794;6.060;2023-03-15T07:02:01;99667.84;;;2.61;100.00
26719;BME280;14326;50.794;6.060;2023-03-15T07:04:28;99673.09;;;2.61;100.00
26719;BME280;14326;50.794;6.060;2023-03-15T07:06:55;99676.75;;;2.64;100.00
26719;BME280;14326;50.794;6.060;2023-03-15T07:09:22;99679.25;;;2.82;100.00
26719;BME280;14326;50.794;6.060;2023-03-15T07:11:48;99685.81;;;2.93;100.00
26719;BME280;14326;50.794;6.060;2023-03-15T07:14:23;99690.09;;;2.91;100.00
26719;BME280;14326;50.794;6.060;2023-03-15T07:17:01;99700.34;;;2.85;100.00
26719;BME280;14326;50.794;6.060;2023-03-15T07:20:01;99700.50;;;2.88;100.00
26719;BME280;14326;50.794;6.060;2023-03-15T07:22:42;99704.81;;;3.08;100.00
26719;BME280;14326;50.794;6.060;2023-03-15T07:25:16;99704.06;;;3.79;100.00
26719;BME280;14326;50.794;6.060;2023-03-15T07:27:52;99697.53;;;4.41;100.00
26719;BME280;14326;50.794;6.060;2023-03-15T07:30:53;99704.72;;;6.12;100.00
26719;BME280;14326;50.794;6.060;2023-03-15T07:33:25;99703.25;;;6.89;95.55
26719;BME280;14326;50.794;6.060;2023-03-15T07:35:56;99699.66;;;8.02;88.74
26719;BME280;14326;50.794;6.060;2023-03-15T07:38:25;99704.50;;;8.68;82.09
26719;BME280;14326;50.794;6.060;2023-03-15T07:40:53;99703.22;;;8.94;80.74
26719;BME280;14326;50.794;6.060;2023-03-15T07:43:23;99703.03;;;8.36;83.29
26719;BME280;14326;50.794;6.060;2023-03-15T07:45:50;99716.31;;;7.56;84.98
26719;BME280;14326;50.794;6.060;2023-03-15T07:48:19;99719.75;;;7.15;86.50
26719;BME280;14326;50.794;6.060;2023-03-15T07:50:49;99713.63;;;7.94;85.42
26719;BME280;14326;50.794;6.060;2023-03-15T07:53:17;99727.22;;;8.54;81.93
26719;BME280;14326;50.794;6.060;2023-03-15T07:55:45;99726.28;;;9.01;79.58
26719;BME280;14326;50.794;6.060;2023-03-15T07:58:15;99738.53;;;9.46;77.17
26719;BME280;14326;50.794;6.060;2023-03-15T08:00:53;99744.88;;;9.56;75.23
26719;BME280;14326;50.794;6.060;2023-03-15T08:03:20;99742.09;;;9.47;76.22
26719;BME280;14326;50.794;6.060;2023-03-15T08:05:46;99752.16;;;8.63;77.46
26719;BME280;14326;50.794;6.060;2023-03-15T08:08:18;99763.31;;;8.05;81.10
26719;BME280;14326;50.794;6.060;2023-03-15T08:10:46;99769.03;;;7.47;85.32
26719;BME280;14326;50.794;6.060;2023-03-15T08:13:21;99774.22;;;7.07;87.75
26719;BME280;14326;50.794;6.060;2023-03-15T08:15:53;99783.81;;;6.70;89.46
26719;BME280;14326;50.794;6.060;2023-03-15T08:18:20;99786.00;;;6.53;93.17
26719;BME280;14326;50.794;6.060;2023-03-15T08:20:46;99791.16;;;6.49;93.03
26719;BME280;14326;50.794;6.060;2023-03-15T08:23:13;99788.22;;;6.38;95.24
26719;BME280;14326;50.794;6.060;2023-03-15T08:25:42;99795.59;;;6.20;95.22
26719;BME280;14326;50.794;6.060;2023-03-15T08:28:09;99795.28;;;6.09;97.02
26719;BME280;14326;50.794;6.060;2023-03-15T08:30:43;99811.66;;;5.98;96.60
26719;BME280;14326;50.794;6.060;2023-03-15T08:33:12;99812.81;;;5.79;98.70
26719;BME280;14326;50.794;6.060;2023-03-15T08:35:39;99821.97;;;5.89;96.53
26719;BME280;14326;50.794;6.060;2023-03-15T08:38:07;99822.31;;;6.29;98.03
26719;BME280;14326;50.794;6.060;2023-03-15T08:40:34;99821.69;;;6.69;94.87
26719;BME280;14326;50.794;6.060;2023-03-15T08:43:03;99823.47;;;7.03;94.81
26719;BME280;14326;50.794;6.060;2023-03-15T08:45:29;99820.97;;;7.44;89.83
26719;BME280;14326;50.794;6.060;2023-03-15T08:47:56;99819.13;;;8.14;88.86
26719;BME280;14326;50.794;6.060;2023-03-15T08:50:27;99819.44;;;8.70;82.97
26719;BME280;14326;50.794;6.060;2023-03-15T08:52:56;99817.19;;;8.91;81.39
26719;BME280;14326;50.794;6.060;2023-03-15T08:55:55;99812.19;;;9.07;81.19
26719;BME280;14326;50.794;6.060;2023-03-15T08:58:24;99820.50;;;9.26;79.28
26719;BME280;14326;50.794;6.060;2023-03-15T09:00:51;99819.88;;;9.41;77.79
26719;BME280;14326;50.794;6.060;2023-03-15T09:03:18;99831.00;;;9.19;77.71
26719;BME280;14326;50.794;6.060;2023-03-15T09:05:54;99832.75;;;9.18;79.14
26719;BME280;14326;50.794;6.060;2023-03-15T09:08:21;99848.78;;;8.79;80.44
26719;BME280;14326;50.794;6.060;2023-03-15T09:10:53;99851.78;;;8.13;79.40
26719;BME280;14326;50.794;6.060;2023-03-15T09:13:19;99854.34;;;7.71;83.22
26719;BME280;14326;50.794;6.060;2023-03-15T09:15:50;99853.88;;;7.53;86.79
26719;BME280;14326;50.794;6.060;2023-03-15T09:18:17;99858.03;;;7.44;87.29
26719;BME280;14326;50.794;6.060;2023-03-15T09:20:44;99861.00;;;7.21;87.49
26719;BME280;14326;50.794;6.060;2023-03-15T09:23:11;99864.38;;;7.16;88.67
26719;BME280;14326;50.794;6.060;2023-03-15T09:25:38;99866.81;;;7.08;89.28
26719;BME280;14326;50.794;6.060;2023-03-15T09:28:07;99873.94;;;6.79;90.19
26719;BME280;14326;50.794;6.060;2023-03-15T09:30:39;99882.84;;;6.51;89.97
26719;BME280;14326;50.794;6.060;2023-03-15T09:33:08;99883.69;;;6.50;88.37
26719;BME280;14326;50.794;6.060;2023-03-15T09:35:39;99880.00;;;6.45;88.51
26719;BME280;14326;50.794;6.060;2023-03-15T09:38:06;99874.72;;;6.75;91.06
26719;BME280;14326;50.794;6.060;2023-03-15T09:40:39;99876.31;;;7.02;89.46
26719;BME280;14326;50.794;6.060;2023-03-15T09:43:28;99878.81;;;7.28;88.45
26719;BME280;14326;50.794;6.060;2023-03-15T09:46:04;99880.94;;;7.42;85.28
26719;BME280;14326;50.794;6.060;2023-03-15T09:48:45;99870.34;;;7.42;84.84
26719;BME280;14326;50.794;6.060;2023-03-15T09:51:26;99876.97;;;7.24;83.76
26719;BME280;14326;50.794;6.060;2023-03-15T09:53:57;99882.88;;;7.16;85.74
26719;BME280;14326;50.794;6.060;2023-03-15T09:56:29;99891.91;;;6.91;84.96
26719;BME280;14326;50.794;6.060;2023-03-15T09:58:59;99886.25;;;6.79;86.54
26719;BME280;14326;50.794;6.060;2023-03-15T10:01:30;99868.38;;;7.02;82.68
26719;BME280;14326;50.794;6.060;2023-03-15T10:04:03;99872.69;;;7.31;81.30
26719;BME280;14326;50.794;6.060;2023-03-15T10:06:33;99868.19;;;7.61;77.20
26719;BME280;14326;50.794;6.060;2023-03-15T10:09:09;99860.28;;;7.63;77.34
26719;BME280;14326;50.794;6.060;2023-03-15T10:11:58;99861.53;;;7.77;79.06
26719;BME280;14326;50.794;6.060;2023-03-15T10:14:53;99863.94;;;8.04;75.62
26719;BME280;14326;50.794;6.060;2023-03-15T10:17:40;99864.47;;;8.28;75.77
26719;BME280;14326;50.794;6.060;2023-03-15T10:23:25;99863.34;;;8.56;75.11
26719;BME280;14326;50.794;6.060;2023-03-15T10:26:27;99874.84;;;8.56;72.37
26719;BME280;14326;50.794;6.060;2023-03-15T10:29:11;99870.72;;;8.71;74.75
26719;BME280;14326;50.794;6.060;2023-03-15T10:31:54;99867.44;;;8.84;75.12
26719;BME280;14326;50.794;6.060;2023-03-15T10:34:31;99869.34;;;8.89;75.65
26719;BME280;14326;50.794;6.060;2023-03-15T10:37:24;99869.13;;;8.79;69.76
26719;BME280;14326;50.794;6.060;2023-03-15T10:39:56;99865.19;;;9.03;68.10
26719;BME280;14326;50.794;6.060;2023-03-15T10:42:29;99861.84;;;9.12;68.13
26719;BME280;14326;50.794;6.060;2023-03-15T10:45:22;99864.25;;;9.00;69.68
26719;BME280;14326;50.794;6.060;2023-03-15T10:48:11;99865.00;;;9.41;67.13
26719;BME280;14326;50.794;6.060;2023-03-15T10:50:38;99863.69;;;9.66;65.29
26719;BME280;14326;50.794;6.060;2023-03-15T10:53:08;99860.81;;;9.55;61.33
26719;BME280;14326;50.794;6.060;2023-03-15T10:55:40;99870.31;;;9.42;63.28
26719;BME280;14326;50.794;6.060;2023-03-15T10:58:19;99871.88;;;9.30;66.22
26719;BME280;14326;50.794;6.060;2023-03-15T11:00:49;99879.28;;;8.99;64.10
26719;BME280;14326;50.794;6.060;2023-03-15T11:03:18;99879.16;;;8.93;70.16
26719;BME280;14326;50.794;6.060;2023-03-15T11:05:47;99891.56;;;8.94;66.19
26719;BME280;14326;50.794;6.060;2023-03-15T11:08:22;99896.00;;;8.53;67.30
26719;BME280;14326;50.794;6.060;2023-03-15T11:10:56;99898.97;;;8.30;70.00
26719;BME280;14326;50.794;6.060;2023-03-15T11:13:24;99901.19;;;8.11;66.11
26719;BME280;14326;50.794;6.060;2023-03-15T11:15:56;99900.81;;;7.95;68.51
26719;BME280;14326;50.794;6.060;2023-03-15T11:18:34;99898.63;;;7.78;71.85
26719;BME280;14326;50.794;6.060;2023-03-15T11:21:17;99903.09;;;7.81;71.12
26719;BME280;14326;50.794;6.060;2023-03-15T11:24:02;99909.06;;;8.08;67.69
26719;BME280;14326;50.794;6.060;2023-03-15T11:26:40;99901.88;;;8.40;66.29
26719;BME280;14326;50.794;6.060;2023-03-15T11:29:21;99912.91;;;8.60;68.12
26719;BME280;14326;50.794;6.060;2023-03-15T11:31:49;99910.50;;;8.71;67.55
26719;BME280;14326;50.794;6.060;2023-03-15T11:34:36;99918.34;;;8.65;68.92
26719;BME280;14326;50.794;6.060;2023-03-15T11:37:14;99918.81;;;8.47;65.53
26719;BME280;14326;50.794;6.060;2023-03-15T11:39:49;99927.69;;;8.11;64.36
26719;BME280;14326;50.794;6.060;2023-03-15T11:42:22;99923.00;;;8.01;69.74
26719;BME280;14326;50.794;6.060;2023-03-15T11:44:56;99930.03;;;7.99;70.46
26719;BME280;14326;50.794;6.060;2023-03-15T11:47:46;99926.28;;;7.91;72.27
26719;BME280;14326;50.794;6.060;2023-03-15T11:50:20;99940.97;;;7.77;68.53
26719;BME280;14326;50.794;6.060;2023-03-15T11:52:48;99942.56;;;7.72;69.59
26719;BME280;14326;50.794;6.060;2023-03-15T11:55:18;99940.50;;;7.59;71.42
26719;BME280;14326;50.794;6.060;2023-03-15T11:57:54;99937.00;;;7.61;72.65
26719;BME280;14326;50.794;6.060;2023-03-15T12:03:50;99924.25;;;7.79;68.49
26719;BME280;14326;50.794;6.060;2023-03-15T12:06:49;99930.63;;;8.23;66.92
26719;BME280;14326;50.794;6.060;2023-03-15T12:09:46;99924.31;;;8.56;64.01
26719;BME280;14326;50.794;6.060;2023-03-15T12:12:38;99927.16;;;9.06;63.92
26719;BME280;14326;50.794;6.060;2023-03-15T12:21:19;99922.44;;;9.37;60.27
26719;BME280;14326;50.794;6.060;2023-03-15T12:24:13;99924.66;;;9.61;58.70
26719;BME280;14326;50.794;6.060;2023-03-15T12:26:59;99921.84;;;9.52;58.11
26719;BME280;14326;50.794;6.060;2023-03-15T12:29:34;99917.56;;;9.12;58.73
26719;BME280;14326;50.794;6.060;2023-03-15T12:32:06;99918.97;;;8.96;63.20
26719;BME280;14326;50.794;6.060;2023-03-15T12:34:56;99920.69;;;8.93;60.14
26719;BME280;14326;50.794;6.060;2023-03-15T12:37:26;99912.13;;;9.06;59.08
26719;BME280;14326;50.794;6.060;2023-03-15T12:43:04;99901.91;;;9.27;56.81
26719;BME280;14326;50.794;6.060;2023-03-15T12:48:22;99900.41;;;9.43;58.80
26719;BME280;14326;50.794;6.060;2023-03-15T12:50:59;99905.72;;;9.41;57.09
26719;BME280;14326;50.794;6.060;2023-03-15T12:53:35;99896.41;;;9.66;58.74
26719;BME280;14326;50.794;6.060;2023-03-15T12:56:31;99903.69;;;9.76;57.29
26719;BME280;14326;50.794;6.060;2023-03-15T13:02:31;99907.09;;;9.69;55.12
26719;BME280;14326;50.794;6.060;2023-03-15T13:05:21;99910.28;;;9.50;56.06
26719;BME280;14326;50.794;6.060;2023-03-15T13:08:07;99910.84;;;9.32;54.88
26719;BME280;14326;50.794;6.060;2023-03-15T13:11:00;99911.97;;;8.98;56.85
26719;BME280;14326;50.794;6.060;2023-03-15T13:16:20;99905.81;;;8.99;59.29
26719;BME280;14326;50.794;6.060;2023-03-15T13:19:01;99905.03;;;9.05;58.25
26719;BME280;14326;50.794;6.060;2023-03-15T13:21:35;99897.09;;;9.08;54.26
26719;BME280;14326;50.794;6.060;2023-03-15T13:24:17;99899.13;;;9.21;56.13
26719;BME280;14326;50.794;6.060;2023-03-15T13:26:52;99891.53;;;9.39;56.33
26719;BME280;14326;50.794;6.060;2023-03-15T13:29:25;99895.03;;;9.38;56.67
26719;BME280;14326;50.794;6.060;2023-03-15T13:32:11;99896.13;;;9.50;57.90
26719;BME280;14326;50.794;6.060;2023-03-15T13:34:39;99908.81;;;9.66;56.18
26719;BME280;14326;50.794;6.060;2023-03-15T13:37:12;99904.44;;;9.69;53.84
26719;BME280;14326;50.794;6.060;2023-03-15T13:39:52;99893.56;;;9.56;52.45
26719;BME280;14326;50.794;6.060;2023-03-15T13:42:20;99897.84;;;9.46;56.08
26719;BME280;14326;50.794;6.060;2023-03-15T13:45:01;99894.53;;;9.59;55.38
26719;BME280;14326;50.794;6.060;2023-03-15T13:47:28;99891.81;;;9.56;53.05
26719;BME280;14326;50.794;6.060;2023-03-15T13:49:55;99891.91;;;9.62;55.17
26719;BME280;14326;50.794;6.060;2023-03-15T13:52:21;99893.47;;;9.50;52.95
26719;BME280;14326;50.794;6.060;2023-03-15T13:54:51;99900.28;;;9.34;53.37
26719;BME280;14326;50.794;6.060;2023-03-15T13:57:28;99906.09;;;9.15;55.08
26719;BME280;14326;50.794;6.060;2023-03-15T13:59:59;99900.72;;;9.12;57.67
26719;BME280;14326;50.794;6.060;2023-03-15T14:02:32;99907.91;;;9.17;56.86
26719;BME280;14326;50.794;6.060;2023-03-15T14:05:12;99907.19;;;9.24;55.81
26719;BME280;14326;50.794;6.060;2023-03-15T14:07:56;99910.06;;;9.36;55.96
26719;BME280;14326;50.794;6.060;2023-03-15T14:10:30;99916.22;;;9.35;55.86
26719;BME280;14326;50.794;6.060;2023-03-15T14:13:14;99911.59;;;9.25;54.45
26719;BME280;14326;50.794;6.060;2023-03-15T14:15:42;99911.59;;;9.25;56.59